createdAt,value
2023-01-18T00:00:43.610Z,4.00
2023-01-18T00:03:13.375Z,5.50
2023-01-18T00:05:43.655Z,4.00
2023-01-18T00:08:17.425Z,4.50
2023-01-18T00:10:46.759Z,3.50
2023-01-18T00:13:15.534Z,6.00
2023-01-18T00:15:44.524Z,4.50
2023-01-18T00:18:13.383Z,4.25
2023-01-18T00:20:43.969Z,2.50
2023-01-18T00:23:12.753Z,3.25
2023-01-18T00:25:41.556Z,4.50
2023-01-18T00:28:10.324Z,4.00
2023-01-18T00:30:39.145Z,5.75
2023-01-18T00:33:07.897Z,3.50
2023-01-18T00:35:37.129Z,3.00
2023-01-18T00:38:07.561Z,6.00
2023-01-18T00:40:37.091Z,6.00
2023-01-18T00:43:19.553Z,5.50
2023-01-18T00:45:48.440Z,3.75
2023-01-18T00:48:17.225Z,1.80
2023-01-18T00:50:46.570Z,3.40
2023-01-18T00:53:16.868Z,6.00
2023-01-18T00:55:45.666Z,3.25
2023-01-18T00:58:14.466Z,5.25
2023-01-18T01:00:43.576Z,3.75
2023-01-18T01:03:15.017Z,4.00
2023-01-18T01:05:57.491Z,5.50
2023-01-18T01:08:27.713Z,6.00
2023-01-18T01:11:06.096Z,6.00
2023-01-18T01:13:48.586Z,3.50
2023-01-18T01:16:31.582Z,4.00
2023-01-18T01:19:14.034Z,3.00
2023-01-18T01:21:56.815Z,4.00
2023-01-18T01:24:40.691Z,3.75
2023-01-18T01:27:10.918Z,3.50
2023-01-18T01:29:39.712Z,3.00
2023-01-18T01:32:08.579Z,4.50
2023-01-18T01:34:37.449Z,6.50
2023-01-18T01:37:06.238Z,3.50
2023-01-18T01:39:36.517Z,3.50
2023-01-18T01:42:05.659Z,3.75
2023-01-18T01:44:46.955Z,1.00
2023-01-18T01:47:28.124Z,3.00
2023-01-18T01:49:58.867Z,3.25
2023-01-18T01:52:29.097Z,5.50
2023-01-18T01:55:01.963Z,3.25
2023-01-18T01:57:32.009Z,4.00
2023-01-18T02:00:01.985Z,5.00
2023-01-18T02:02:31.496Z,3.00
2023-01-18T02:05:00.246Z,3.00
2023-01-18T02:07:29.877Z,5.50
2023-01-18T02:10:00.189Z,7.00
2023-01-18T02:12:29.027Z,4.50
2023-01-18T02:14:57.885Z,7.00
2023-01-18T02:17:36.300Z,6.25
2023-01-18T02:20:34.553Z,4.50
2023-01-18T02:23:24.258Z,4.00
2023-01-18T02:26:04.823Z,3.00
2023-01-18T02:28:35.939Z,4.50
2023-01-18T02:31:09.066Z,4.00
2023-01-18T02:33:41.289Z,4.50
2023-01-18T02:36:10.093Z,5.50
2023-01-18T02:38:40.467Z,3.00
2023-01-18T02:41:14.571Z,5.00
2023-01-18T02:44:01.248Z,0.50
2023-01-18T02:46:34.290Z,5.75
2023-01-18T02:49:08.515Z,3.00
2023-01-18T02:51:37.358Z,7.00
2023-01-18T02:54:07.882Z,7.50
2023-01-18T02:56:39.123Z,5.50
2023-01-18T02:59:11.174Z,4.50
2023-01-18T03:01:42.730Z,5.75
2023-01-18T03:04:12.834Z,6.75
2023-01-18T03:06:42.167Z,4.50
2023-01-18T03:09:11.019Z,6.00
2023-01-18T03:11:42.124Z,4.50
2023-01-18T03:14:18.010Z,6.00
2023-01-18T03:16:59.248Z,1.00
2023-01-18T03:19:49.573Z,3.50
2023-01-18T03:22:18.673Z,5.00
2023-01-18T03:24:46.500Z,6.50
2023-01-18T03:27:29.209Z,0.25
2023-01-18T03:30:13.025Z,6.00
2023-01-18T03:32:56.087Z,3.50
2023-01-18T03:35:27.091Z,3.25
2023-01-18T03:37:56.507Z,4.25
2023-01-18T03:40:27.702Z,6.00
2023-01-18T03:43:00.578Z,6.50
2023-01-18T03:45:32.323Z,6.00
2023-01-18T03:48:01.624Z,6.00
2023-01-18T03:50:33.772Z,4.00
2023-01-18T03:53:02.589Z,6.00
2023-01-18T03:55:33.907Z,7.00
2023-01-18T03:58:04.240Z,7.50
2023-01-18T04:00:34.481Z,3.25
2023-01-18T04:03:03.370Z,6.75
2023-01-18T04:05:32.578Z,3.00
2023-01-18T04:08:01.537Z,6.00
2023-01-18T04:10:30.353Z,6.25
2023-01-18T04:12:59.819Z,6.00
2023-01-18T04:15:28.872Z,7.00
2023-01-18T04:17:59.057Z,9.50
2023-01-18T04:20:27.882Z,6.00
2023-01-18T04:22:57.021Z,7.50
2023-01-18T04:25:27.165Z,7.00
2023-01-18T04:27:55.923Z,11.00
2023-01-18T04:30:24.666Z,5.50
2023-01-18T04:32:53.420Z,6.00
2023-01-18T04:35:23.855Z,6.00
2023-01-18T04:37:53.992Z,10.00
2023-01-18T04:40:22.743Z,7.00
2023-01-18T04:42:54.809Z,7.00
2023-01-18T04:45:23.585Z,9.75
2023-01-18T04:47:52.307Z,6.25
2023-01-18T04:50:22.441Z,7.00
2023-01-18T04:52:51.245Z,10.00
2023-01-18T04:55:21.143Z,9.00
2023-01-18T04:57:58.689Z,7.50
2023-01-18T05:00:27.831Z,9.25
2023-01-18T05:02:57.079Z,10.00
2023-01-18T05:05:27.848Z,6.50
2023-01-18T05:07:57.217Z,9.00
2023-01-18T05:10:25.959Z,6.00
2023-01-18T05:12:54.785Z,6.50
2023-01-18T05:15:23.613Z,8.75
2023-01-18T05:17:52.422Z,7.00
2023-01-18T05:20:21.450Z,9.00
2023-01-18T05:22:51.630Z,6.75
2023-01-18T05:25:20.444Z,7.50
2023-01-18T05:27:49.238Z,8.50
2023-01-18T05:30:18.734Z,9.00
2023-01-18T05:32:47.507Z,11.00
2023-01-18T05:35:16.370Z,9.25
2023-01-18T05:37:45.500Z,8.50
2023-01-18T05:40:16.895Z,7.00
2023-01-18T05:42:45.649Z,8.00
2023-01-18T05:45:14.909Z,9.00
2023-01-18T05:47:43.894Z,9.75
2023-01-18T05:50:30.929Z,10.75
2023-01-18T05:53:02.132Z,7.50
2023-01-18T05:55:32.684Z,6.50
2023-01-18T05:58:01.625Z,8.50
2023-01-18T06:00:31.498Z,6.50
2023-01-18T06:03:01.044Z,6.75
2023-01-18T06:05:30.265Z,10.25
2023-01-18T06:07:59.826Z,6.75
2023-01-18T06:10:28.571Z,8.00
2023-01-18T06:12:59.126Z,9.25
2023-01-18T06:15:28.161Z,6.75
2023-01-18T06:17:58.244Z,9.25
2023-01-18T06:20:30.640Z,12.25
2023-01-18T06:22:59.895Z,6.00
2023-01-18T06:25:29.043Z,6.00
2023-01-18T06:28:00.234Z,6.75
2023-01-18T06:30:29.256Z,8.00
2023-01-18T06:32:58.375Z,8.00
2023-01-18T06:35:30.537Z,8.25
2023-01-18T06:37:59.262Z,9.75
2023-01-18T06:40:28.149Z,11.50
2023-01-18T06:42:57.313Z,9.25
2023-01-18T06:45:29.722Z,9.50
2023-01-18T06:47:59.342Z,10.50
2023-01-18T06:50:28.748Z,6.50
2023-01-18T06:52:57.810Z,7.50
2023-01-18T06:55:27.809Z,9.25
2023-01-18T06:58:01.062Z,6.75
2023-01-18T07:00:36.709Z,7.00
2023-01-18T07:03:05.810Z,9.75
2023-01-18T07:05:34.936Z,10.50
2023-01-18T07:08:04.196Z,10.00
2023-01-18T07:10:33.003Z,5.75
2023-01-18T07:13:01.911Z,6.00
2023-01-18T07:15:32.139Z,6.00
2023-01-18T07:18:02.038Z,10.25
2023-01-18T07:20:31.141Z,10.00
2023-01-18T07:23:00.290Z,10.00
2023-01-18T07:25:32.674Z,10.50
2023-01-18T07:28:07.187Z,6.25
2023-01-18T07:30:37.339Z,7.00
2023-01-18T07:33:07.328Z,10.00
2023-01-18T07:35:36.293Z,10.50
2023-01-18T07:38:05.171Z,10.00
2023-01-18T07:40:35.093Z,9.75
2023-01-18T07:43:04.368Z,10.00
2023-01-18T07:45:33.465Z,7.50
2023-01-18T07:48:03.657Z,10.00
2023-01-18T07:50:33.916Z,12.25
2023-01-18T07:53:04.943Z,8.00
2023-01-18T07:55:34.857Z,10.00
2023-01-18T07:58:03.640Z,4.50
2023-01-18T08:00:33.417Z,9.00
2023-01-18T08:03:04.083Z,6.75
2023-01-18T08:05:33.613Z,10.00
2023-01-18T08:08:02.441Z,10.00
2023-01-18T08:10:31.654Z,9.50
2023-01-18T08:13:00.852Z,6.25
2023-01-18T08:15:30.119Z,8.50
2023-01-18T08:17:59.184Z,12.00
2023-01-18T08:20:29.342Z,6.50
2023-01-18T08:22:58.618Z,12.00
2023-01-18T08:25:30.061Z,12.25
2023-01-18T08:27:59.935Z,9.75
2023-01-18T08:30:28.774Z,10.00
2023-01-18T08:32:58.059Z,12.75
2023-01-18T08:35:28.870Z,4.00
2023-01-18T08:38:00.119Z,11.50
2023-01-18T08:40:31.678Z,5.50
2023-01-18T08:43:03.589Z,10.50
2023-01-18T08:48:19.000Z,12.25
2023-01-18T08:50:51.616Z,7.00
2023-01-18T08:53:20.568Z,14.50
2023-01-18T08:55:49.795Z,11.00
2023-01-18T08:58:18.611Z,11.00
2023-01-18T09:00:50.760Z,12.50
2023-01-18T09:03:21.923Z,7.00
2023-01-18T09:05:52.145Z,10.50
2023-01-18T09:08:21.070Z,10.50
2023-01-18T09:10:49.955Z,11.00
2023-01-18T09:13:19.110Z,12.50
2023-01-18T09:15:48.203Z,12.50
2023-01-18T09:18:35.394Z,9.25
2023-01-18T09:21:08.967Z,8.75
2023-01-18T09:23:40.259Z,11.00
2023-01-18T09:26:10.531Z,8.00
2023-01-18T09:28:39.344Z,15.75
2023-01-18T09:31:11.404Z,4.50
2023-01-18T09:33:51.243Z,13.00
2023-01-18T09:36:26.883Z,10.50
2023-01-18T09:38:56.155Z,6.25
2023-01-18T09:41:30.416Z,9.00
2023-01-18T09:44:00.088Z,13.00
2023-01-18T09:46:29.258Z,9.75
2023-01-18T09:49:01.952Z,15.75
2023-01-18T09:51:52.705Z,7.00
2023-01-18T09:54:29.756Z,11.50
2023-01-18T09:57:05.871Z,8.00
2023-01-18T09:59:35.903Z,11.50
2023-01-18T10:02:04.899Z,11.00
2023-01-18T10:04:36.543Z,4.00
2023-01-18T10:07:08.270Z,14.00
2023-01-18T10:09:40.349Z,9.75
2023-01-18T10:12:14.767Z,11.00
2023-01-18T10:14:46.730Z,12.25
2023-01-18T10:17:18.027Z,11.50
2023-01-18T10:19:46.977Z,7.50
2023-01-18T10:22:22.527Z,6.00
2023-01-18T10:24:55.608Z,10.75
2023-01-18T10:27:36.173Z,14.25
2023-01-18T10:30:14.489Z,13.00
2023-01-18T10:32:44.350Z,9.75
2023-01-18T10:35:16.730Z,7.25
2023-01-18T10:37:47.053Z,0.00
2023-01-18T10:40:34.686Z,15.25
2023-01-18T10:43:04.726Z,13.00
2023-01-18T10:45:35.046Z,10.75
2023-01-18T10:48:20.324Z,15.00
2023-01-18T10:50:53.051Z,13.00
2023-01-18T10:53:28.342Z,15.25
2023-01-18T10:55:59.680Z,15.50
2023-01-18T10:58:34.385Z,15.50
2023-01-18T11:01:04.536Z,18.25
2023-01-18T11:03:53.431Z,15.50
2023-01-18T11:06:22.194Z,15.00
2023-01-18T11:08:52.831Z,12.50
2023-01-18T11:11:51.443Z,12.00
2023-01-18T11:14:25.474Z,14.50
2023-01-18T11:16:59.898Z,15.75
2023-01-18T11:19:28.693Z,12.00
2023-01-18T11:21:57.479Z,14.50
2023-01-18T11:24:29.262Z,10.50
2023-01-18T11:27:00.507Z,13.50
2023-01-18T11:29:32.319Z,13.50
2023-01-18T11:32:03.918Z,18.75
2023-01-18T11:34:34.182Z,18.00
2023-01-18T11:37:03.377Z,15.75
2023-01-18T11:39:34.826Z,7.00
2023-01-18T11:42:18.214Z,11.60
2023-01-18T11:44:48.860Z,16.50
2023-01-18T11:47:21.957Z,15.00
2023-01-18T11:49:56.034Z,7.25
2023-01-18T11:52:29.493Z,14.50
2023-01-18T11:55:01.812Z,13.80
2023-01-18T11:57:30.560Z,11.20
2023-01-18T11:59:59.763Z,12.20
2023-01-18T12:02:38.839Z,15.25
2023-01-18T12:05:25.857Z,10.80
2023-01-18T12:08:01.796Z,10.00
2023-01-18T12:10:34.353Z,10.00
2023-01-18T12:16:06.111Z,16.20
2023-01-18T12:18:50.406Z,12.00
2023-01-18T12:21:22.275Z,9.20
2023-01-18T12:23:59.208Z,6.60
2023-01-18T12:26:36.910Z,12.80
2023-01-18T12:29:14.713Z,14.60
2023-01-18T12:31:54.447Z,13.00
2023-01-18T12:34:24.404Z,13.40
2023-01-18T12:37:04.752Z,10.20
2023-01-18T12:39:49.610Z,13.40
2023-01-18T12:42:23.389Z,15.40
2023-01-18T12:45:15.358Z,15.20
2023-01-18T12:47:52.607Z,14.60
2023-01-18T12:50:25.121Z,12.00
2023-01-18T12:52:55.386Z,12.60
2023-01-18T12:55:25.902Z,13.00
2023-01-18T12:57:59.180Z,14.60
2023-01-18T13:00:31.710Z,11.40
2023-01-18T13:03:02.606Z,10.80
2023-01-18T13:05:35.463Z,11.20
2023-01-18T13:08:09.652Z,13.40
2023-01-18T13:10:38.770Z,14.60
2023-01-18T13:13:09.046Z,10.40
2023-01-18T13:15:41.767Z,13.00
2023-01-18T13:18:14.355Z,12.60
2023-01-18T13:20:50.156Z,12.00
2023-01-18T13:23:25.133Z,9.60
2023-01-18T13:25:56.662Z,11.60
2023-01-18T13:28:28.134Z,10.40
2023-01-18T13:31:01.981Z,12.20
2023-01-18T13:33:32.901Z,11.60
2023-01-18T13:36:05.275Z,12.40
2023-01-18T13:39:20.630Z,12.40
2023-01-18T13:42:50.151Z,8.80
2023-01-18T13:45:22.139Z,9.80
2023-01-18T13:47:54.122Z,12.00
2023-01-18T13:50:40.056Z,10.00
2023-01-18T13:53:24.707Z,9.00
2023-01-18T13:56:22.591Z,9.00
2023-01-18T13:58:56.736Z,9.80
2023-01-18T14:01:28.907Z,9.00
2023-01-18T14:03:57.825Z,9.00
2023-01-18T14:06:29.479Z,11.00
2023-01-18T14:09:02.335Z,9.20
2023-01-18T14:11:31.979Z,12.80
2023-01-18T14:14:03.626Z,11.60
2023-01-18T14:16:34.543Z,7.00
2023-01-18T14:19:05.720Z,10.00
2023-01-18T14:21:43.962Z,7.80
2023-01-18T14:24:21.107Z,1.40
2023-01-18T14:26:50.063Z,7.40
2023-01-18T14:29:21.209Z,10.00
2023-01-18T14:31:53.043Z,9.60
2023-01-18T14:34:26.341Z,4.40
2023-01-18T14:36:55.390Z,7.80
2023-01-18T14:39:26.938Z,9.00
2023-01-18T14:42:00.856Z,9.20
2023-01-18T14:44:48.652Z,8.20
2023-01-18T14:47:28.204Z,7.80
2023-01-18T14:49:58.108Z,9.00
2023-01-18T14:52:30.567Z,8.20
2023-01-18T14:54:59.330Z,6.40
2023-01-18T14:57:28.575Z,10.00
2023-01-18T14:59:57.971Z,8.60
2023-01-18T15:02:29.526Z,8.20
2023-01-18T15:05:12.724Z,9.20
2023-01-18T15:07:41.555Z,7.40
2023-01-18T15:10:10.938Z,5.80
2023-01-18T15:12:40.091Z,5.60
2023-01-18T15:15:10.709Z,7.00
2023-01-18T15:17:40.856Z,6.40
2023-01-18T15:20:15.025Z,9.40
2023-01-18T15:22:43.770Z,9.00
2023-01-18T15:25:19.067Z,8.40
2023-01-18T15:27:52.594Z,7.00
2023-01-18T15:30:23.531Z,7.00
2023-01-18T15:32:59.536Z,9.00
2023-01-18T15:37:57.961Z,9.00
2023-01-18T15:40:28.773Z,9.00
2023-01-18T15:43:02.117Z,2.60
2023-01-18T15:45:31.983Z,6.00
2023-01-18T15:48:03.451Z,7.00
2023-01-18T15:50:35.808Z,7.80
2023-01-18T15:53:11.894Z,4.60
2023-01-18T15:55:42.455Z,5.20
2023-01-18T15:58:13.752Z,4.00
2023-01-18T16:00:44.365Z,4.00
2023-01-18T16:03:22.149Z,1.00
2023-01-18T16:06:07.883Z,4.40
2023-01-18T16:08:37.345Z,7.00
2023-01-18T16:11:06.646Z,8.20
2023-01-18T16:13:37.112Z,6.00
2023-01-18T16:16:14.390Z,6.00
2023-01-18T16:18:46.251Z,7.00
2023-01-18T16:21:19.553Z,7.40
2023-01-18T16:23:49.397Z,5.20
2023-01-18T16:26:23.294Z,6.00
2023-01-18T16:28:52.938Z,6.80
2023-01-18T16:31:24.095Z,5.80
2023-01-18T16:33:54.732Z,6.00
2023-01-18T16:36:25.718Z,3.00
2023-01-18T16:38:54.564Z,3.00
2023-01-18T16:41:23.661Z,6.00
2023-01-18T16:43:52.438Z,7.00
2023-01-18T16:46:21.262Z,3.00
2023-01-18T16:48:50.435Z,7.80
2023-01-18T16:51:20.660Z,6.20
2023-01-18T16:53:49.746Z,4.80
2023-01-18T16:56:18.516Z,6.20
2023-01-18T16:58:47.654Z,7.00
2023-01-18T17:01:17.385Z,9.00
2023-01-18T17:03:46.250Z,6.40
2023-01-18T17:06:18.022Z,4.00
2023-01-18T17:08:49.354Z,3.00
2023-01-18T17:11:18.604Z,7.00
2023-01-18T17:13:47.986Z,6.00
2023-01-18T17:16:18.141Z,7.00
2023-01-18T17:18:47.053Z,6.80
2023-01-18T17:21:15.855Z,8.20
2023-01-18T17:23:45.566Z,7.40
2023-01-18T17:26:17.009Z,6.20
2023-01-18T17:28:46.087Z,10.40
2023-01-18T17:31:14.861Z,8.20
2023-01-18T17:33:44.038Z,6.00
2023-01-18T17:36:12.791Z,6.40
2023-01-18T17:38:42.270Z,4.00
2023-01-18T17:41:19.425Z,5.60
2023-01-18T17:43:49.967Z,5.20
2023-01-18T17:46:20.906Z,4.00
2023-01-18T17:48:52.148Z,3.00
2023-01-18T17:51:21.271Z,4.00
2023-01-18T17:53:51.556Z,3.60
2023-01-18T17:56:20.529Z,9.00
2023-01-18T17:58:50.991Z,8.20
2023-01-18T18:01:20.005Z,6.60
2023-01-18T18:03:50.364Z,3.50
2023-01-18T18:06:30.258Z,6.40
2023-01-18T18:08:59.477Z,4.00
2023-01-18T18:11:28.270Z,6.00
2023-01-18T18:13:59.529Z,6.60
2023-01-18T18:16:29.116Z,6.00
2023-01-18T18:18:58.435Z,5.60
2023-01-18T18:21:27.619Z,5.20
2023-01-18T18:23:57.466Z,6.00
2023-01-18T18:26:26.217Z,3.00
2023-01-18T18:28:54.957Z,4.80
2023-01-18T18:31:25.206Z,6.00
2023-01-18T18:33:54.480Z,3.40
2023-01-18T18:36:27.822Z,3.40
2023-01-18T18:38:56.699Z,4.00
2023-01-18T18:41:25.447Z,6.20
2023-01-18T18:43:54.583Z,3.20
2023-01-18T18:46:25.077Z,5.20
2023-01-18T18:48:57.953Z,2.20
2023-01-18T18:51:32.409Z,3.80
2023-01-18T18:54:03.569Z,3.40
2023-01-18T18:56:34.287Z,4.00
2023-01-18T18:59:03.172Z,1.00
2023-01-18T19:01:33.798Z,4.00
2023-01-18T19:04:02.919Z,4.00
2023-01-18T19:06:31.771Z,1.80
2023-01-18T19:09:18.949Z,3.40
2023-01-18T19:11:55.162Z,1.00
2023-01-18T19:14:25.975Z,4.60
2023-01-18T19:16:56.626Z,4.40
2023-01-18T19:19:26.912Z,5.20
2023-01-18T19:21:55.786Z,4.00
2023-01-18T19:24:26.312Z,6.00
2023-01-18T19:26:56.356Z,5.60
2023-01-18T19:29:27.956Z,6.00
2023-01-18T19:31:58.455Z,0.00
2023-01-18T19:34:27.718Z,6.00
2023-01-18T19:36:57.371Z,8.20
2023-01-18T19:39:26.844Z,4.40
2023-01-18T19:41:58.284Z,4.80
2023-01-18T19:44:28.190Z,5.60
2023-01-18T19:46:58.520Z,6.60
2023-01-18T19:49:27.340Z,4.00
2023-01-18T19:51:56.210Z,3.00
2023-01-18T19:54:26.211Z,6.00
2023-01-18T19:56:55.333Z,4.00
2023-01-18T19:59:24.234Z,3.00
2023-01-18T20:01:53.239Z,4.00
2023-01-18T20:04:23.501Z,6.00
2023-01-18T20:06:52.363Z,4.40
2023-01-18T20:09:31.924Z,3.80
2023-01-18T20:12:08.714Z,5.20
2023-01-18T20:14:41.577Z,3.00
2023-01-18T20:17:11.214Z,4.00
2023-01-18T20:19:41.543Z,2.20
2023-01-18T20:22:10.401Z,4.00
2023-01-18T20:24:39.419Z,3.00
2023-01-18T20:27:15.917Z,4.00
2023-01-18T20:29:45.460Z,4.00
2023-01-18T20:32:18.106Z,4.40
2023-01-18T20:34:48.881Z,4.00
2023-01-18T20:37:36.105Z,4.00
2023-01-18T20:40:05.049Z,2.80
2023-01-18T20:42:34.176Z,4.00
2023-01-18T20:45:05.779Z,0.80
2023-01-18T20:47:34.869Z,4.00
2023-01-18T20:50:05.133Z,5.60
2023-01-18T20:52:34.007Z,3.00
2023-01-18T20:55:02.830Z,3.00
2023-01-18T20:57:49.425Z,6.00
2023-01-18T21:00:20.259Z,4.00
2023-01-18T21:02:49.230Z,4.40
2023-01-18T21:05:22.071Z,3.80
2023-01-18T21:07:51.227Z,5.60
2023-01-18T21:10:20.091Z,3.80
2023-01-18T21:12:49.209Z,6.00
2023-01-18T21:15:18.380Z,3.00
2023-01-18T21:17:47.193Z,1.00
2023-01-18T21:20:16.172Z,4.00
2023-01-18T21:22:47.508Z,4.00
2023-01-18T21:25:17.239Z,4.00
2023-01-18T21:27:45.987Z,4.00
2023-01-18T21:30:16.981Z,4.00
2023-01-18T21:32:45.847Z,3.80
2023-01-18T21:35:14.798Z,5.60
2023-01-18T21:37:43.537Z,4.40
2023-01-18T21:40:14.508Z,3.00
2023-01-18T21:42:56.871Z,6.00
2023-01-18T21:45:39.619Z,4.80
2023-01-18T21:48:09.083Z,0.80
2023-01-18T21:51:11.061Z,6.00
2023-01-18T21:53:56.332Z,3.60
2023-01-18T21:56:26.671Z,4.00
2023-01-18T21:58:56.239Z,5.40
2023-01-18T22:01:26.244Z,4.40
2023-01-18T22:04:09.540Z,4.00
2023-01-18T22:06:38.506Z,4.00
2023-01-18T22:09:08.025Z,4.40
2023-01-18T22:11:38.154Z,4.80
2023-01-18T22:14:07.575Z,3.40
2023-01-18T22:16:36.744Z,6.60
2023-01-18T22:19:06.361Z,5.20
2023-01-18T22:21:35.374Z,3.80
2023-01-18T22:24:04.655Z,5.20
2023-01-18T22:26:36.031Z,4.00
2023-01-18T22:29:06.462Z,6.00
2023-01-18T22:31:35.323Z,4.00
2023-01-18T22:34:05.440Z,3.80
2023-01-18T22:36:34.569Z,3.00
2023-01-18T22:39:03.406Z,4.00
2023-01-18T22:41:32.190Z,4.80
2023-01-18T22:44:00.995Z,4.00
2023-01-18T22:46:31.232Z,4.00
2023-01-18T22:49:00.166Z,4.00
2023-01-18T22:51:29.570Z,6.20
2023-01-18T22:53:58.378Z,4.40
2023-01-18T22:56:27.730Z,6.00
2023-01-18T22:58:56.785Z,6.00
2023-01-18T23:01:26.647Z,4.00
2023-01-18T23:03:57.435Z,3.60
2023-01-18T23:06:28.189Z,2.20
2023-01-18T23:08:57.255Z,6.80
2023-01-18T23:11:26.823Z,6.20
2023-01-18T23:14:13.262Z,4.00
2023-01-18T23:16:55.963Z,2.20
2023-01-18T23:19:29.623Z,3.80
2023-01-18T23:21:59.683Z,4.00
2023-01-18T23:24:28.630Z,5.60
2023-01-18T23:26:57.387Z,3.80
2023-01-18T23:29:26.576Z,4.00
2023-01-18T23:31:57.376Z,3.80
2023-01-18T23:34:28.449Z,4.00
2023-01-18T23:36:57.257Z,4.80
2023-01-18T23:39:39.933Z,5.20
2023-01-18T23:42:22.500Z,2.80
2023-01-18T23:45:06.264Z,3.20
2023-01-18T23:47:48.772Z,3.00
2023-01-18T23:50:33.419Z,4.00
2023-01-18T23:53:15.867Z,7.00
2023-01-18T23:55:44.903Z,7.00
2023-01-18T23:58:13.994Z,3.00
